Time;durP1;ratioP1;P1;durP2;ratioP2;P2;SDS_P1;SDS_P2;PMS_P1;PMS_P2;Temp;Humidity;BMP_temperature;BMP_pressure;BME280_temperature;BME280_humidity;BME280_pressure;Samples;Min_cycle;Max_cycle;Signal;HPM_P1;HPM_P2
2020/12/13 00:00:27;;;;;;;23.38;14.90;;;;;;;0.90;100.00;101264.27;1842906;77;21143;-89
2020/12/13 00:07:25;;;;;;;29.42;19.42;;;;;;;0.90;100.00;101262.98;1842870;77;21128;-90
2020/12/13 00:09:54;;;;;;;29.12;19.32;;;;;;;0.88;100.00;101260.89;1842868;77;21111;-89
2020/12/13 00:12:29;;;;;;;32.70;18.48;;;;;;;0.89;100.00;101258.73;1842773;77;21463;-89
2020/12/13 00:19:01;;;;;;;31.27;19.60;;;;;;;0.88;100.00;101251.09;1842884;77;21600;-90
2020/12/13 00:25:52;;;;;;;34.23;22.25;;;;;;;0.88;100.00;101254.48;1831366;78;21139;-89
2020/12/13 00:28:21;;;;;;;36.68;19.92;;;;;;;0.90;100.00;101252.73;1831487;77;21143;-89
2020/12/13 00:35:13;;;;;;;28.50;18.85;;;;;;;0.89;100.00;101253.61;1831511;78;21151;-89
2020/12/13 00:42:06;;;;;;;36.13;23.27;;;;;;;0.85;100.00;101245.56;1831397;78;21096;-90
2020/12/13 00:44:42;;;;;;;33.90;22.13;;;;;;;0.85;100.00;101238.33;1831458;78;21089;-89
2020/12/13 00:47:12;;;;;;;41.28;23.73;;;;;;;0.84;100.00;101234.91;1831382;78;21587;-89
2020/12/13 00:49:47;;;;;;;35.50;22.55;;;;;;;0.82;100.00;101229.41;1828068;78;21136;-89
2020/12/13 00:56:39;;;;;;;51.90;28.00;;;;;;;0.82;100.00;101231.98;1831060;78;21112;-89
2020/12/13 00:59:07;;;;;;;45.85;26.60;;;;;;;0.80;100.00;101226.90;1831341;77;21148;-90
2020/12/13 01:05:58;;;;;;;37.55;23.75;;;;;;;0.80;100.00;101217.92;1774102;80;21171;-90
2020/12/13 01:08:26;;;;;;;51.55;29.48;;;;;;;0.84;100.00;101203.31;1796843;79;21529;-90
2020/12/13 01:10:56;;;;;;;50.95;28.23;;;;;;;0.87;100.00;101214.33;1796818;79;21564;-90
2020/12/13 01:13:25;;;;;;;50.28;27.77;;;;;;;0.87;100.00;101202.78;1798221;79;21123;-89
2020/12/13 01:16:24;;;;;;;44.58;25.48;;;;;;;0.89;100.00;101202.73;1810094;79;21131;-89
2020/12/13 01:19:02;;;;;;;45.12;24.05;;;;;;;0.90;100.00;101194.17;1810216;79;21540;-90
2020/12/13 01:24:56;;;;;;;37.38;21.30;;;;;;;0.91;100.00;101199.28;1810067;79;21191;-89
2020/12/13 01:27:24;;;;;;;41.75;22.93;;;;;;;0.88;100.00;101208.33;1810059;79;21159;-89
2020/12/13 01:29:59;;;;;;;44.65;25.17;;;;;;;0.89;100.00;101204.02;1810131;79;21374;-89
2020/12/13 01:32:37;;;;;;;54.40;29.05;;;;;;;0.88;100.00;101199.34;1810079;79;21140;-90
2020/12/13 01:35:09;;;;;;;47.08;27.98;;;;;;;0.88;100.00;101209.61;1807642;79;21335;-89
2020/12/13 01:37:38;;;;;;;52.95;28.12;;;;;;;0.86;100.00;101204.95;1809853;78;21429;-90
2020/12/13 01:40:09;;;;;;;51.30;27.32;;;;;;;0.85;100.00;101204.54;1809293;79;21102;-89
2020/12/13 01:42:41;;;;;;;44.35;26.40;;;;;;;0.83;100.00;101203.76;1809258;79;21567;-89
2020/12/13 01:48:54;;;;;;;46.40;25.90;;;;;;;0.83;100.00;101197.77;1809344;79;21198;-89
2020/12/13 01:51:46;;;;;;;46.63;26.65;;;;;;;0.82;100.00;101187.97;1808252;79;21136;-89
2020/12/13 01:54:36;;;;;;;48.87;27.48;;;;;;;0.81;100.00;101192.69;1808460;78;21136;-91
2020/12/13 01:57:37;;;;;;;46.23;26.90;;;;;;;0.83;100.00;101195.20;1809440;78;21155;-89
2020/12/13 02:00:15;;;;;;;56.53;30.12;;;;;;;0.83;100.00;101190.94;1809579;78;21116;-90
2020/12/13 02:03:12;;;;;;;48.52;27.90;;;;;;;0.82;100.00;101185.41;1809291;79;21317;-90
2020/12/13 02:09:09;;;;;;;45.00;23.90;;;;;;;0.77;100.00;101194.91;1809312;79;21048;-89
2020/12/13 02:12:09;;;;;;;41.48;25.10;;;;;;;0.79;100.00;101205.98;1809179;79;21065;-89
2020/12/13 02:14:38;;;;;;;44.67;26.60;;;;;;;0.80;100.00;101215.81;1809351;79;21556;-89
2020/12/13 02:17:09;;;;;;;36.58;23.45;;;;;;;0.80;100.00;101223.05;1809179;79;21364;-89
2020/12/13 02:19:40;;;;;;;;;;;;;;;0.81;100.00;101216.19;1811895;79;21096;-90
2020/12/13 02:22:12;;;;;;;42.13;25.12;;;;;;;0.82;100.00;101220.44;1809433;78;20477;-89
2020/12/13 02:24:48;;;;;;;39.40;24.30;;;;;;;0.82;100.00;101218.73;1809298;79;21151;-89
2020/12/13 02:27:48;;;;;;;40.67;23.92;;;;;;;0.78;100.00;101210.28;1809292;78;21112;-90
2020/12/13 02:30:19;;;;;;;52.38;25.70;;;;;;;0.77;100.00;101221.84;1809346;79;22257;-90
2020/12/13 02:37:11;;;;;;;43.00;26.30;;;;;;;0.72;100.00;101236.50;1809381;79;21151;-92
2020/12/13 02:39:43;;;;;;;43.87;26.57;;;;;;;0.68;100.00;101216.95;1809072;79;21132;-90
2020/12/13 02:42:15;;;;;;;43.08;26.75;;;;;;;0.69;100.00;101218.61;1809357;79;21104;-90
2020/12/13 02:45:17;;;;;;;;;;;;;;;0.69;100.00;101218.61;1812017;79;21326;-89
2020/12/13 02:47:49;;;;;;;36.33;22.60;;;;;;;0.68;100.00;101228.04;1809375;79;20623;-90
2020/12/13 02:50:20;;;;;;;39.40;23.07;;;;;;;0.63;100.00;101233.27;1809358;79;21115;-90
2020/12/13 02:53:24;;;;;;;40.83;24.55;;;;;;;0.58;100.00;101236.40;1809426;79;21144;-90
2020/12/13 02:56:00;;;;;;;46.28;26.77;;;;;;;0.55;100.00;101245.42;1809682;78;21120;-91
2020/12/13 03:05:57;;;;;;;46.28;24.40;;;;;;;0.49;100.00;101226.36;1810194;79;21595;-89
2020/12/13 03:12:51;;;;;;;42.78;21.97;;;;;;;0.43;100.00;101220.09;1810205;79;21156;-89
2020/12/13 03:15:20;;;;;;;33.18;20.08;;;;;;;0.43;100.00;101218.36;1809998;79;21341;-89
2020/12/13 03:17:48;;;;;;;37.55;20.62;;;;;;;0.43;100.00;101220.09;1809971;79;21509;-90
2020/12/13 03:20:16;;;;;;;47.13;23.50;;;;;;;0.45;100.00;101214.47;1810144;79;21056;-89
2020/12/13 03:22:44;;;;;;;32.28;18.62;;;;;;;0.45;100.00;101212.77;1810184;78;21438;-90
2020/12/13 03:25:20;;;;;;;34.48;22.20;;;;;;;0.48;100.00;101209.29;1810290;79;21836;-90
2020/12/13 03:32:14;;;;;;;34.20;21.25;;;;;;;0.48;100.00;101216.98;1810246;79;21155;-89
2020/12/13 03:34:43;;;;;;;31.40;18.92;;;;;;;0.48;100.00;101211.85;1810304;79;21571;-89
2020/12/13 03:37:13;;;;;;;40.65;21.02;;;;;;;0.44;100.00;101212.36;1810386;79;21564;-88
2020/12/13 03:39:42;;;;;;;37.13;20.32;;;;;;;0.42;100.00;101212.00;1810307;79;21655;-88
2020/12/13 03:42:14;;;;;;;36.03;21.35;;;;;;;0.41;100.00;101206.47;1810412;79;22178;-88
2020/12/13 03:45:13;;;;;;;33.28;20.25;;;;;;;0.39;100.00;101206.52;1810227;78;21112;-88
2020/12/13 03:47:42;;;;;;;32.65;21.02;;;;;;;0.39;100.00;101220.61;1810237;79;21127;-88
2020/12/13 03:50:10;;;;;;;35.50;21.10;;;;;;;0.39;100.00;101233.84;1810352;79;21127;-89
2020/12/13 03:52:38;;;;;;;38.92;20.15;;;;;;;0.39;100.00;101237.27;1810279;79;21114;-88
2020/12/13 03:55:09;;;;;;;30.45;18.98;;;;;;;0.39;100.00;101224.88;1810218;78;21434;-88
2020/12/13 03:57:38;;;;;;;;;;;;;;;0.37;100.00;101229.18;1813008;79;21151;-88
2020/12/13 04:00:10;;;;;;;34.08;18.35;;;;;;;0.37;100.00;101224.06;1810289;79;20221;-88
2020/12/13 04:02:45;;;;;;;33.13;19.62;;;;;;;0.36;100.00;101209.59;1810222;79;21107;-89
2020/12/13 04:05:42;;;;;;;32.10;19.45;;;;;;;0.35;100.00;101216.87;1810387;79;21147;-88
2020/12/13 04:08:11;;;;;;;33.85;18.92;;;;;;;0.36;100.00;101216.00;1810278;79;21376;-90
2020/12/13 04:15:10;;;;;;;33.55;20.43;;;;;;;0.38;100.00;101229.59;1810296;79;21456;-88
2020/12/13 04:21:34;;;;;;;29.80;16.12;;;;;;;0.31;100.00;101238.70;1802443;78;21141;-89
2020/12/13 04:24:03;;;;;;;29.45;18.98;;;;;;;0.30;100.00;101228.05;1798609;79;21365;-89
2020/12/13 04:26:33;;;;;;;27.40;17.75;;;;;;;0.33;100.00;101235.27;1827089;78;21156;-90
2020/12/13 04:29:01;;;;;;;28.87;16.82;;;;;;;0.35;100.00;101235.63;1831373;78;21124;-89
2020/12/13 04:31:32;;;;;;;27.40;16.07;;;;;;;0.35;100.00;101231.79;1831259;78;21132;-89
2020/12/13 04:34:29;;;;;;;25.80;15.05;;;;;;;0.35;100.00;101235.63;1807199;77;21096;-90
2020/12/13 04:37:01;;;;;;;30.77;17.65;;;;;;;0.34;100.00;101232.66;1798653;79;21108;-90
2020/12/13 04:46:30;;;;;;;29.15;16.93;;;;;;;0.36;100.00;101235.21;1798627;79;21116;-89
2020/12/13 04:49:35;;;;;;;27.65;16.65;;;;;;;0.33;100.00;101227.13;1801718;78;21160;-89
2020/12/13 04:59:56;;;;;;;32.10;17.80;;;;;;;0.26;100.00;101254.63;1831298;78;21135;-89
2020/12/13 05:02:31;;;;;;;30.32;17.15;;;;;;;0.22;100.00;101256.83;1829374;78;21140;-89
2020/12/13 05:12:15;;;;;;;25.88;15.80;;;;;;;0.22;100.00;101238.91;1807682;79;21107;-89
2020/12/13 05:23:30;;;;;;;23.83;13.95;;;;;;;0.22;100.00;101250.87;1769713;80;21274;-93
2020/12/13 05:29:25;;;;;;;24.00;14.38;;;;;;;0.20;100.00;101248.78;1775095;80;21155;-89
2020/12/13 05:31:57;;;;;;;25.92;15.30;;;;;;;0.16;100.00;101242.88;1775248;80;21572;-89
2020/12/13 05:38:49;;;;;;;23.22;13.25;;;;;;;0.12;100.00;101246.40;1802019;79;21076;-92
2020/12/13 05:41:22;;;;;;;26.10;14.38;;;;;;;0.08;100.00;101242.20;1813788;79;21333;-91
2020/12/13 05:48:03;;;;;;;26.73;15.18;;;;;;;0.06;100.00;101243.53;1813630;79;21167;-92
2020/12/13 06:06:42;;;;;;;29.92;15.60;;;;;;;-0.01;100.00;101286.78;1813436;79;21143;-91
2020/12/13 06:09:19;;;;;;;28.98;15.83;;;;;;;-0.03;100.00;101278.28;1778019;79;21125;-90
2020/12/13 06:16:13;;;;;;;22.98;13.65;;;;;;;-0.04;100.00;101274.86;1781549;80;21176;-89
2020/12/13 06:22:56;;;;;;;26.45;14.40;;;;;;;0.04;100.00;101268.77;1781757;78;21204;-90
2020/12/13 06:29:30;;;;;;;24.63;14.80;;;;;;;0.06;100.00;101265.72;1796650;78;21104;-90
2020/12/13 06:36:01;;;;;;;27.10;13.65;;;;;;;0.11;100.00;101263.92;1777570;80;21153;-90
2020/12/13 06:50:27;;;;;;;28.75;14.25;;;;;;;0.15;100.00;101252.30;1730157;82;21112;-90
2020/12/13 06:57:50;;;;;;;25.82;15.32;;;;;;;0.17;100.00;101262.50;1752105;81;21584;-89
2020/12/13 07:00:18;;;;;;;25.48;15.32;;;;;;;0.30;100.00;101264.36;1764259;79;21131;-90
2020/12/13 07:02:59;;;;;;;25.05;15.15;;;;;;;0.51;100.00;101271.16;1781404;79;21123;-90
2020/12/13 07:14:09;;;;;;;28.85;15.38;;;;;;;0.71;100.00;101260.45;1788597;80;21792;-94
2020/12/13 07:25:16;;;;;;;32.40;15.68;;;;;;;0.68;100.00;101281.05;1768080;79;21145;-93
2020/12/13 07:31:52;;;;;;;27.93;15.20;;;;;;;0.62;100.00;101275.62;1779042;80;21561;-91
2020/12/13 07:34:20;;;;;;;24.92;14.63;;;;;;;0.71;100.00;101270.70;1802315;78;21033;-91
2020/12/13 07:36:50;;;;;;;24.95;15.78;;;;;;;0.71;100.00;101271.56;1796851;79;21154;-92
2020/12/13 07:39:25;;;;;;;27.40;17.17;;;;;;;0.72;100.00;101264.70;1766161;81;21394;-89
2020/12/13 07:42:21;;;;;;;26.42;15.35;;;;;;;0.81;100.00;101258.08;1769340;81;21163;-92
2020/12/13 07:49:21;;;;;;;32.63;15.25;;;;;;;0.81;100.00;101251.66;1789885;79;21132;-90
2020/12/13 07:58:53;;;;;;;31.23;16.07;;;;;;;0.71;100.00;101261.73;1802910;79;21089;-91
2020/12/13 08:01:28;;;;;;;32.13;15.60;;;;;;;0.70;100.00;101266.03;1809400;78;24453;-91
2020/12/13 08:04:01;;;;;;;34.63;16.87;;;;;;;0.68;100.00;101251.56;1817453;78;21540;-91
2020/12/13 08:06:30;;;;;;;27.10;15.70;;;;;;;0.66;100.00;101241.33;1811952;78;21121;-91
2020/12/13 08:08:59;;;;;;;28.20;16.45;;;;;;;0.67;100.00;101253.72;1807311;79;22066;-91
2020/12/13 08:11:59;;;;;;;29.02;16.02;;;;;;;0.71;100.00;101254.90;1812931;78;21087;-91
2020/12/13 08:14:28;;;;;;;31.17;16.82;;;;;;;0.68;100.00;101245.98;1816993;78;21152;-90
2020/12/13 08:17:29;;;;;;;29.27;16.15;;;;;;;0.69;100.00;101245.11;1812497;78;21536;-90
2020/12/13 08:20:06;;;;;;;29.25;16.20;;;;;;;0.67;100.00;101252.44;1811622;78;21121;-90
2020/12/13 08:23:09;;;;;;;27.07;15.68;;;;;;;0.63;100.00;101244.81;1827162;77;21131;-89
2020/12/13 08:25:37;;;;;;;27.35;16.05;;;;;;;0.62;100.00;101242.30;1806212;79;21136;-89
2020/12/13 08:28:06;;;;;;;28.60;16.52;;;;;;;0.60;100.00;101243.59;1797828;79;21159;-89
2020/12/13 08:34:07;;;;;;;28.83;16.30;;;;;;;0.62;100.00;101256.39;1779291;80;21159;-90
2020/12/13 08:36:36;;;;;;;26.70;15.20;;;;;;;0.62;100.00;101248.25;1779262;80;21575;-89
2020/12/13 08:43:00;;;;;;;33.55;17.10;;;;;;;0.62;100.00;101261.06;1762004;80;21145;-89
2020/12/13 08:50:23;;;;;;;27.07;15.63;;;;;;;0.60;100.00;101266.66;1804171;79;21569;-89
2020/12/13 08:53:23;;;;;;;28.00;15.53;;;;;;;0.63;100.00;101244.81;1797095;79;22070;-90
2020/12/13 08:56:13;;;;;;;27.70;15.75;;;;;;;0.69;100.00;101223.74;1784030;80;21163;-90
2020/12/13 08:58:52;;;;;;;26.23;16.42;;;;;;;0.71;100.00;101227.12;1784134;80;21167;-90
2020/12/13 09:01:25;;;;;;;29.35;17.32;;;;;;;0.75;100.00;101219.77;1783998;80;21139;-90
2020/12/13 09:03:55;;;;;;;33.65;18.45;;;;;;;0.78;100.00;101232.08;1779933;80;21155;-90
2020/12/13 09:06:33;;;;;;;34.18;19.23;;;;;;;0.82;100.00;101230.28;1809002;79;22094;-90
2020/12/13 09:09:13;;;;;;;33.88;18.45;;;;;;;0.88;100.00;101225.45;1809606;79;21164;-90
2020/12/13 09:12:19;;;;;;;47.27;19.35;;;;;;;0.89;100.00;101229.24;1783211;79;21170;-91
2020/12/13 09:14:53;;;;;;;32.67;18.98;;;;;;;0.89;100.00;101233.09;1807850;79;21088;-90
2020/12/13 09:17:24;;;;;;;31.02;18.52;;;;;;;1.02;100.00;101210.97;1807790;78;21143;-90
2020/12/13 09:19:55;;;;;;;37.93;23.42;;;;;;;1.05;100.00;101190.38;1807951;78;26713;-90
2020/12/13 09:22:23;;;;;;;37.15;20.72;;;;;;;1.05;100.00;101191.20;1807758;78;21127;-90
2020/12/13 09:24:59;;;;;;;37.23;22.42;;;;;;;1.04;100.00;101200.23;1807822;79;21366;-90
2020/12/13 09:27:29;;;;;;;36.75;21.77;;;;;;;1.06;100.00;101201.05;1797450;78;21160;-90
2020/12/13 09:29:58;;;;;;;34.33;21.12;;;;;;;1.06;100.00;101185.66;1796803;79;21108;-90
2020/12/13 09:32:30;;;;;;;41.42;23.40;;;;;;;1.10;100.00;101177.84;1796965;79;21533;-90
2020/12/13 09:34:59;;;;;;;;;;;;;;;1.08;100.00;101175.75;1799513;79;21129;-90
2020/12/13 09:37:34;;;;;;;38.28;22.70;;;;;;;1.10;100.00;101175.70;1797051;79;20217;-90
2020/12/13 09:40:06;;;;;;;42.55;21.80;;;;;;;1.12;100.00;101174.40;1824647;78;21187;-91
2020/12/13 09:43:03;;;;;;;41.85;23.00;;;;;;;1.09;100.00;101156.05;1830990;78;21127;-91
2020/12/13 09:45:35;;;;;;;40.33;24.45;;;;;;;1.06;100.00;101161.28;1772860;79;21184;-90
2020/12/13 09:48:05;;;;;;;39.35;24.40;;;;;;;1.00;100.00;101143.50;1812246;79;21135;-90
2020/12/13 09:50:37;;;;;;;49.77;26.85;;;;;;;0.97;100.00;101144.86;1813695;79;21136;-90
2020/12/13 09:53:12;;;;;;;41.45;24.95;;;;;;;0.91;100.00;101153.13;1813635;79;21108;-90
2020/12/13 09:55:43;;;;;;;42.90;25.68;;;;;;;0.86;100.00;101146.42;1813709;79;21195;-92
2020/12/13 09:58:12;;;;;;;;;;;;;;;0.82;100.00;101140.95;1816210;79;21597;-91
2020/12/13 10:00:42;;;;;;;42.43;26.87;;;;;;;0.79;100.00;101140.60;1813500;79;20224;-90
2020/12/13 10:03:42;;;;;;;46.23;27.55;;;;;;;0.78;100.00;101145.33;1813723;79;21199;-90
2020/12/13 10:06:30;;;;;;;45.10;26.97;;;;;;;0.76;100.00;101163.32;1782729;79;21608;-90
2020/12/13 10:11:32;;;;;;;42.17;24.05;;;;;;;0.85;100.00;101178.07;1813344;79;21349;-89
2020/12/13 10:14:06;;;;;;;40.75;23.42;;;;;;;0.88;100.00;101174.16;1794615;78;21187;-90
2020/12/13 10:16:35;;;;;;;42.08;23.30;;;;;;;0.94;100.00;101173.99;1787221;79;21556;-90
2020/12/13 10:19:03;;;;;;;47.25;24.95;;;;;;;0.93;100.00;101173.13;1795287;79;21201;-90
2020/12/13 10:21:33;;;;;;;41.25;25.97;;;;;;;0.94;100.00;101170.97;1782607;79;21143;-90
2020/12/13 10:24:02;;;;;;;45.25;25.35;;;;;;;0.96;100.00;101157.27;1781355;80;22289;-90
2020/12/13 10:26:35;;;;;;;44.55;26.27;;;;;;;0.97;100.00;101161.52;1783066;79;21233;-90
2020/12/13 10:29:07;;;;;;;44.00;25.65;;;;;;;1.01;100.00;101165.67;1788144;80;21347;-90
2020/12/13 10:31:41;;;;;;;41.20;25.27;;;;;;;1.04;100.00;101184.84;1773365;81;21128;-90
2020/12/13 10:34:11;;;;;;;38.88;23.20;;;;;;;1.03;100.00;101183.16;1773376;81;21474;-90
2020/12/13 10:36:40;;;;;;;41.85;25.35;;;;;;;1.01;100.00;101169.10;1773294;81;21378;-90
2020/12/13 10:39:10;;;;;;;38.05;24.80;;;;;;;1.02;100.00;101162.23;1773134;81;21132;-90
2020/12/13 10:41:39;;;;;;;44.38;24.12;;;;;;;1.02;100.00;101160.53;1773764;81;21529;-89
2020/12/13 10:44:07;;;;;;;45.75;24.63;;;;;;;1.07;100.00;101157.84;1784476;79;21143;-89
2020/12/13 10:46:39;;;;;;;41.92;25.40;;;;;;;1.06;100.00;101162.11;1805194;79;21128;-89
2020/12/13 10:49:42;;;;;;;41.30;23.95;;;;;;;1.04;100.00;101161.76;1795946;79;21374;-89
2020/12/13 10:56:35;;;;;;;47.62;27.25;;;;;;;1.01;100.00;101152.85;1754198;81;21157;-95
2020/12/13 11:03:27;;;;;;;46.83;27.05;;;;;;;0.95;100.00;101142.34;1775679;80;21539;-94
2020/12/13 11:05:55;;;;;;;41.58;24.18;;;;;;;0.83;100.00;101133.67;1784230;80;21214;-93
2020/12/13 11:08:55;;;;;;;49.18;25.77;;;;;;;0.77;100.00;101137.23;1777650;80;21164;-92
2020/12/13 11:15:19;;;;;;;36.63;22.45;;;;;;;0.77;100.00;101145.78;1779999;78;21125;-92
2020/12/13 11:21:45;;;;;;;42.95;26.00;;;;;;;0.76;100.00;101153.06;1769511;81;21192;-92
2020/12/13 11:32:02;;;;;;;45.25;26.42;;;;;;;0.83;100.00;101149.91;1712893;83;21295;-92
2020/12/13 11:39:02;;;;;;;43.15;26.70;;;;;;;0.77;100.00;101144.92;1698954;84;21146;-92
2020/12/13 11:41:32;;;;;;;49.83;28.87;;;;;;;0.74;100.00;101144.56;1698845;84;21584;-91
2020/12/13 11:55:16;;;;;;;45.60;28.23;;;;;;;0.76;100.00;101165.88;1741933;81;21375;-91
2020/12/13 11:57:48;;;;;;;38.25;24.72;;;;;;;0.79;100.00;101159.83;1721776;83;21199;-91
2020/12/13 12:00:18;;;;;;;41.28;24.63;;;;;;;0.85;100.00;101163.52;1699015;84;21170;-92
2020/12/13 12:10:23;;;;;;;44.55;28.50;;;;;;;0.89;100.00;101150.17;1738064;82;21143;-93
2020/12/13 12:13:26;;;;;;;39.92;27.15;;;;;;;0.84;100.00;101140.03;1696102;83;21172;-92
2020/12/13 12:16:26;;;;;;;39.53;24.67;;;;;;;0.82;100.00;101143.09;1701297;82;21784;-94
2020/12/13 12:23:18;;;;;;;40.00;24.45;;;;;;;0.85;100.00;101179.35;1716936;83;21180;-92
2020/12/13 12:26:20;;;;;;;40.48;26.15;;;;;;;0.89;100.00;101201.03;1717003;83;21208;-93
2020/12/13 12:43:31;;;;;;;36.88;23.83;;;;;;;0.91;100.00;101208.26;1781570;80;21127;-93
2020/12/13 12:50:23;;;;;;;41.48;24.85;;;;;;;0.95;100.00;101228.25;1781592;80;21567;-92
2020/12/13 12:57:15;;;;;;;46.20;27.87;;;;;;;1.11;100.00;101240.23;1745345;82;21147;-92
2020/12/13 15:44:13;;;;;;;35.80;19.90;;;;;;;0.33;100.00;101233.98;1713704;82;21474;-92
2020/12/13 15:46:42;;;;;;;34.78;18.98;;;;;;;0.24;100.00;101241.00;1711066;82;21572;-92
2020/12/13 15:49:10;;;;;;;34.65;20.00;;;;;;;0.24;100.00;101235.88;1728639;81;21207;-93
2020/12/13 15:55:43;;;;;;;39.88;20.05;;;;;;;0.21;100.00;101232.54;1726346;81;21358;-92
2020/12/13 15:58:13;;;;;;;40.58;21.12;;;;;;;0.16;100.00;101228.80;1706984;83;21206;-91
2020/12/13 16:00:43;;;;;;;35.23;20.15;;;;;;;0.13;100.00;101227.15;1696602;82;21142;-91
2020/12/13 16:11:40;;;;;;;41.20;22.22;;;;;;;0.16;100.00;101233.92;1710734;83;21554;-91
2020/12/13 16:14:08;;;;;;;39.15;21.82;;;;;;;0.21;100.00;101241.05;1716338;83;21214;-91
2020/12/13 16:16:36;;;;;;;40.65;24.27;;;;;;;0.22;100.00;101239.35;1714111;83;21139;-91
2020/12/13 16:23:28;;;;;;;40.45;24.12;;;;;;;0.27;100.00;101243.50;1700410;81;21223;-92
2020/12/13 16:26:24;;;;;;;39.80;21.95;;;;;;;0.30;100.00;101247.26;1716586;82;22283;-92
2020/12/13 16:28:56;;;;;;;36.77;22.58;;;;;;;0.33;100.00;101246.34;1705940;83;21143;-91
2020/12/13 16:31:34;;;;;;;40.40;22.35;;;;;;;0.37;100.00;101250.96;1754793;81;21203;-92
2020/12/13 16:34:11;;;;;;;47.08;22.55;;;;;;;0.42;100.00;101249.16;1702002;83;21127;-92
2020/12/13 16:36:45;;;;;;;45.15;24.40;;;;;;;0.45;100.00;101249.93;1694613;82;21183;-92
2020/12/13 16:43:35;;;;;;;40.70;24.82;;;;;;;0.43;100.00;101253.41;1701575;82;21170;-91
2020/12/13 16:46:46;;;;;;;42.58;24.15;;;;;;;0.51;100.00;101256.64;1682530;83;21608;-92
2020/12/13 16:55:05;;;;;;;40.05;23.07;;;;;;;0.43;100.00;101266.22;1692593;82;22196;-92
2020/12/13 16:57:33;;;;;;;38.95;22.45;;;;;;;0.35;100.00;101264.27;1695282;82;21234;-92
2020/12/13 17:00:29;;;;;;;45.73;26.12;;;;;;;0.29;100.00;101262.22;1717020;82;21116;-91
2020/12/13 17:03:16;;;;;;;41.70;23.67;;;;;;;0.24;100.00;101271.73;1721645;82;21144;-92
2020/12/13 17:05:46;;;;;;;40.00;24.77;;;;;;;0.18;100.00;101266.75;1716542;82;21168;-91
2020/12/13 17:08:50;;;;;;;49.00;25.80;;;;;;;0.14;100.00;101266.39;1690589;82;22262;-92
2020/12/13 17:15:36;;;;;;;44.73;25.12;;;;;;;0.03;100.00;101274.77;1704673;82;21286;-91
2020/12/13 17:25:33;;;;;;;43.87;24.27;;;;;;;-0.07;100.00;101277.92;1691582;83;21563;-91
2020/12/13 17:28:31;;;;;;;43.75;25.75;;;;;;;-0.11;100.00;101277.14;1720717;82;21123;-92
2020/12/13 17:31:36;;;;;;;45.15;24.98;;;;;;;-0.14;100.00;101273.38;1705281;83;21234;-92
2020/12/13 17:34:11;;;;;;;40.43;24.43;;;;;;;-0.16;100.00;101279.80;1700481;82;21685;-91
2020/12/13 17:36:46;;;;;;;49.15;28.02;;;;;;;-0.16;100.00;101275.13;1731895;82;21234;-92
2020/12/13 17:39:10;;;;;;;47.27;26.70;;;;;;;-0.20;100.00;101275.62;1685628;82;21640;-92
2020/12/13 17:46:10;;;;;;;45.33;26.50;;;;;;;-0.17;100.00;101274.71;1706212;83;21191;-93
2020/12/13 17:48:39;;;;;;;49.70;26.23;;;;;;;-0.15;100.00;101276.81;1675381;84;21168;-89
2020/12/13 17:51:17;;;;;;;45.40;25.50;;;;;;;-0.16;100.00;101280.24;1715460;81;21132;-89
2020/12/13 17:57:16;;;;;;;42.13;25.48;;;;;;;-0.16;100.00;101287.92;1717366;81;21167;-93
2020/12/13 17:59:45;;;;;;;48.92;27.58;;;;;;;-0.15;100.00;101276.81;1703737;82;21174;-92
2020/12/13 18:02:13;;;;;;;49.15;27.00;;;;;;;-0.14;100.00;101268.69;1691748;83;21187;-92
2020/12/13 18:04:41;;;;;;;44.53;26.20;;;;;;;-0.11;100.00;101268.63;1684667;83;21126;-92
2020/12/13 18:07:09;;;;;;;50.35;28.20;;;;;;;-0.11;100.00;101267.35;1705829;82;21441;-93
2020/12/13 18:13:56;;;;;;;43.73;26.48;;;;;;;-0.12;100.00;101263.10;1700392;83;21187;-90
2020/12/13 18:16:25;;;;;;;42.30;24.92;;;;;;;-0.11;100.00;101273.75;1707405;83;21178;-93
2020/12/13 18:18:55;;;;;;;40.35;24.82;;;;;;;-0.11;100.00;101268.19;1694908;82;21633;-93
2020/12/13 18:21:25;;;;;;;41.05;25.40;;;;;;;-0.10;100.00;101271.60;1677945;84;21438;-91
2020/12/13 18:23:53;;;;;;;46.88;26.75;;;;;;;-0.10;100.00;101270.33;1690017;84;21258;-92
2020/12/13 18:30:36;;;;;;;45.63;26.27;;;;;;;-0.10;100.00;101263.92;1703900;81;21143;-89
2020/12/13 18:33:05;;;;;;;47.05;25.60;;;;;;;-0.11;100.00;101254.10;1728940;81;21127;-91
2020/12/13 18:35:34;;;;;;;48.73;27.15;;;;;;;-0.11;100.00;101243.86;1716663;82;22281;-90
2020/12/13 18:41:28;;;;;;;44.40;27.37;;;;;;;-0.13;100.00;101239.65;1730892;81;21174;-92
2020/12/13 18:44:31;;;;;;;48.10;27.70;;;;;;;-0.15;100.00;101230.73;1730997;82;21150;-92
2020/12/13 18:46:59;;;;;;;46.28;27.55;;;;;;;-0.16;100.00;101235.44;1722783;82;21151;-91
2020/12/13 18:50:03;;;;;;;43.10;26.02;;;;;;;-0.16;100.00;101243.13;1693524;82;21389;-91
2020/12/13 18:52:32;;;;;;;44.33;25.50;;;;;;;-0.15;100.00;101247.37;1750090;81;21226;-92
2020/12/13 18:58:53;;;;;;;43.17;26.68;;;;;;;-0.14;100.00;101256.74;1719374;82;21235;-91
2020/12/13 19:01:21;;;;;;;45.25;27.70;;;;;;;-0.13;100.00;101254.59;1718534;83;21138;-89
2020/12/13 19:04:42;;;;;;;43.20;26.27;;;;;;;-0.13;100.00;101248.19;1697739;83;21213;-90
2020/12/13 19:07:09;;;;;;;44.35;26.25;;;;;;;-0.14;100.00;101248.20;1683973;83;21202;-91
2020/12/13 19:09:38;;;;;;;41.92;25.65;;;;;;;-0.15;100.00;101251.21;1709080;81;21140;-91
2020/12/13 19:12:13;;;;;;;41.90;25.72;;;;;;;-0.16;100.00;101246.96;1708963;82;21147;-91
2020/12/13 19:15:18;;;;;;;39.18;22.98;;;;;;;-0.17;100.00;101238.88;1706802;82;21123;-91
2020/12/13 19:17:46;;;;;;;49.53;27.05;;;;;;;-0.16;100.00;101240.56;1692239;83;22305;-93
2020/12/13 19:20:15;;;;;;;44.40;26.20;;;;;;;-0.16;100.00;101235.44;1728860;81;21170;-93
2020/12/13 19:22:43;;;;;;;39.95;23.62;;;;;;;-0.18;100.00;101238.05;1743412;80;21162;-93
2020/12/13 19:25:47;;;;;;;40.60;24.70;;;;;;;-0.17;100.00;101244.85;1738362;81;21182;-92
2020/12/13 19:28:15;;;;;;;41.33;24.92;;;;;;;-0.17;100.00;101251.25;1684071;82;21591;-92
2020/12/13 19:31:13;;;;;;;40.95;26.10;;;;;;;-0.17;100.00;101245.27;1699443;82;21384;-92
2020/12/13 19:33:50;;;;;;;38.65;25.05;;;;;;;-0.17;100.00;101247.83;1746224;81;21254;-92
2020/12/13 19:36:32;;;;;;;40.55;24.80;;;;;;;-0.14;100.00;101249.48;1699757;82;21389;-91
2020/12/13 19:42:35;;;;;;;39.38;22.35;;;;;;;-0.13;100.00;101242.21;1702773;83;20550;-91
2020/12/13 19:45:05;;;;;;;45.35;26.23;;;;;;;-0.12;100.00;101246.01;1702177;83;21234;-91
2020/12/13 19:47:47;;;;;;;40.30;25.75;;;;;;;-0.12;100.00;101238.33;1684216;83;21163;-91
2020/12/13 19:50:16;;;;;;;44.50;25.30;;;;;;;-0.14;100.00;101236.27;1699714;83;21214;-91
2020/12/13 19:53:34;;;;;;;40.05;25.92;;;;;;;-0.16;100.00;101221.36;1702299;82;21131;-91
2020/12/13 19:56:03;;;;;;;46.80;25.40;;;;;;;-0.17;100.00;101221.81;1699142;82;21222;-90
2020/12/13 19:58:34;;;;;;;40.70;25.08;;;;;;;-0.19;100.00;101230.37;1720442;81;21199;-89
2020/12/13 20:01:02;;;;;;;40.12;24.52;;;;;;;-0.19;100.00;101236.77;1692448;82;21434;-89
2020/12/13 20:03:31;;;;;;;46.25;24.82;;;;;;;-0.19;100.00;101245.31;1681697;83;21186;-90
2020/12/13 20:06:00;;;;;;;42.48;24.80;;;;;;;-0.18;100.00;101249.98;1709376;83;21214;-89
2020/12/13 20:08:30;;;;;;;42.60;24.92;;;;;;;-0.17;100.00;101251.25;1712042;83;21147;-89
2020/12/13 20:11:49;;;;;;;39.92;25.55;;;;;;;-0.14;100.00;101245.64;1708825;83;21276;-90
2020/12/13 21:17:52;;;;;;;46.08;26.27;;;;;;;-0.36;100.00;101220.03;1784890;80;21146;-91
2020/12/13 21:24:18;;;;;;;47.53;27.45;;;;;;;-0.42;100.00;101213.77;1794406;79;21159;-91
2020/12/13 21:46:25;;;;;;;39.18;24.43;;;;;;;-0.50;100.00;101202.83;1808124;79;21125;-93
2020/12/13 21:49:26;;;;;;;35.65;22.52;;;;;;;-0.48;100.00;101206.22;1811747;79;22231;-93